sensor_id;sensor_type;location;lat;lon;timestamp;temperature;humidity
16038;DHT22;8123;50.906;6.172;2023-08-08T00:00:37;13.40;1.00
16038;DHT22;8123;50.906;6.172;2023-08-08T00:03:03;13.40;1.00
16038;DHT22;8123;50.906;6.172;2023-08-08T00:05:29;13.40;1.00
16038;DHT22;8123;50.906;6.172;2023-08-08T00:07:54;13.40;1.00
16038;DHT22;8123;50.906;6.172;2023-08-08T00:10:20;13.40;1.00
16038;DHT22;8123;50.906;6.172;2023-08-08T00:12:46;13.30;1.00
16038;DHT22;8123;50.906;6.172;2023-08-08T00:15:11;13.40;1.00
16038;DHT22;8123;50.906;6.172;2023-08-08T00:17:37;13.40;1.00
16038;DHT22;8123;50.906;6.172;2023-08-08T00:20:03;13.40;1.00
16038;DHT22;8123;50.906;6.172;2023-08-08T00:22:29;13.40;1.00
16038;DHT22;8123;50.906;6.172;2023-08-08T00:24:55;13.40;1.00
16038;DHT22;8123;50.906;6.172;2023-08-08T00:27:20;13.30;1.00
16038;DHT22;8123;50.906;6.172;2023-08-08T00:29:46;13.30;27.80
16038;DHT22;8123;50.906;6.172;2023-08-08T00:32:11;13.30;99.90
16038;DHT22;8123;50.906;6.172;2023-08-08T00:34:38;13.30;99.90
16038;DHT22;8123;50.906;6.172;2023-08-08T00:37:03;13.30;99.90
16038;DHT22;8123;50.906;6.172;2023-08-08T00:39:29;13.30;99.90
16038;DHT22;8123;50.906;6.172;2023-08-08T00:41:55;13.30;99.90
16038;DHT22;8123;50.906;6.172;2023-08-08T00:44:20;13.30;99.90
16038;DHT22;8123;50.906;6.172;2023-08-08T00:46:46;13.30;99.90
16038;DHT22;8123;50.906;6.172;2023-08-08T00:49:11;13.20;1.00
16038;DHT22;8123;50.906;6.172;2023-08-08T00:51:38;13.20;1.00
16038;DHT22;8123;50.906;6.172;2023-08-08T00:54:04;13.20;1.00
16038;DHT22;8123;50.906;6.172;2023-08-08T00:56:31;13.20;1.00
16038;DHT22;8123;50.906;6.172;2023-08-08T00:58:57;13.20;1.00
16038;DHT22;8123;50.906;6.172;2023-08-08T01:01:23;13.20;1.00
16038;DHT22;8123;50.906;6.172;2023-08-08T01:03:48;13.20;1.00
16038;DHT22;8123;50.906;6.172;2023-08-08T01:06:31;13.20;1.00
16038;DHT22;8123;50.906;6.172;2023-08-08T01:09:02;13.20;1.00
16038;DHT22;8123;50.906;6.172;2023-08-08T01:11:31;13.20;1.00
16038;DHT22;8123;50.906;6.172;2023-08-08T01:13:58;13.20;1.00
16038;DHT22;8123;50.906;6.172;2023-08-08T01:16:26;13.20;1.00
16038;DHT22;8123;50.906;6.172;2023-08-08T01:18:52;13.20;1.00
16038;DHT22;8123;50.906;6.172;2023-08-08T01:21:18;13.20;1.00
16038;DHT22;8123;50.906;6.172;2023-08-08T01:26:16;13.10;10.80
16038;DHT22;8123;50.906;6.172;2023-08-08T01:28:42;13.10;17.00
16038;DHT22;8123;50.906;6.172;2023-08-08T01:31:09;13.10;6.20
16038;DHT22;8123;50.906;6.172;2023-08-08T01:33:34;13.10;7.80
16038;DHT22;8123;50.906;6.172;2023-08-08T01:36:07;13.10;20.30
16038;DHT22;8123;50.906;6.172;2023-08-08T01:38:41;13.10;46.10
16038;DHT22;8123;50.906;6.172;2023-08-08T01:41:07;13.10;55.20
16038;DHT22;8123;50.906;6.172;2023-08-08T01:43:34;13.10;36.80
16038;DHT22;8123;50.906;6.172;2023-08-08T01:46:00;13.10;28.70
16038;DHT22;8123;50.906;6.172;2023-08-08T01:48:28;13.10;19.50
16038;DHT22;8123;50.906;6.172;2023-08-08T01:50:53;13.10;1.00
16038;DHT22;8123;50.906;6.172;2023-08-08T01:53:19;13.10;1.00
16038;DHT22;8123;50.906;6.172;2023-08-08T01:55:45;13.10;1.00
16038;DHT22;8123;50.906;6.172;2023-08-08T01:58:10;13.10;1.00
16038;DHT22;8123;50.906;6.172;2023-08-08T02:00:36;13.10;7.90
16038;DHT22;8123;50.906;6.172;2023-08-08T02:03:02;13.00;26.80
16038;DHT22;8123;50.906;6.172;2023-08-08T02:05:28;13.00;39.70
16038;DHT22;8123;50.906;6.172;2023-08-08T02:07:54;13.00;81.90
16038;DHT22;8123;50.906;6.172;2023-08-08T02:10:20;13.00;99.90
16038;DHT22;8123;50.906;6.172;2023-08-08T02:12:45;13.00;99.90
16038;DHT22;8123;50.906;6.172;2023-08-08T02:15:11;13.00;99.90
16038;DHT22;8123;50.906;6.172;2023-08-08T02:17:38;12.90;99.90
16038;DHT22;8123;50.906;6.172;2023-08-08T02:20:05;12.90;99.90
16038;DHT22;8123;50.906;6.172;2023-08-08T02:22:32;12.90;99.90
16038;DHT22;8123;50.906;6.172;2023-08-08T02:24:57;12.90;99.90
16038;DHT22;8123;50.906;6.172;2023-08-08T02:27:23;12.90;99.90
16038;DHT22;8123;50.906;6.172;2023-08-08T02:29:49;12.90;99.90
16038;DHT22;8123;50.906;6.172;2023-08-08T02:32:15;12.90;99.90
16038;DHT22;8123;50.906;6.172;2023-08-08T02:34:41;12.90;99.90
16038;DHT22;8123;50.906;6.172;2023-08-08T02:37:08;12.80;99.90
16038;DHT22;8123;50.906;6.172;2023-08-08T02:39:33;12.80;99.90
16038;DHT22;8123;50.906;6.172;2023-08-08T02:41:59;12.80;99.90
16038;DHT22;8123;50.906;6.172;2023-08-08T02:44:25;12.80;99.90
16038;DHT22;8123;50.906;6.172;2023-08-08T02:46:50;12.80;99.90
16038;DHT22;8123;50.906;6.172;2023-08-08T02:49:16;12.90;99.90
16038;DHT22;8123;50.906;6.172;2023-08-08T02:51:41;12.90;99.90
16038;DHT22;8123;50.906;6.172;2023-08-08T02:54:07;12.80;99.90
16038;DHT22;8123;50.906;6.172;2023-08-08T02:56:33;12.80;99.90
16038;DHT22;8123;50.906;6.172;2023-08-08T02:58:58;12.70;99.90
16038;DHT22;8123;50.906;6.172;2023-08-08T03:01:24;12.80;99.90
16038;DHT22;8123;50.906;6.172;2023-08-08T03:03:49;12.70;99.90
16038;DHT22;8123;50.906;6.172;2023-08-08T03:06:15;12.70;99.90
16038;DHT22;8123;50.906;6.172;2023-08-08T03:08:41;12.80;99.90
16038;DHT22;8123;50.906;6.172;2023-08-08T03:11:07;12.80;99.90
16038;DHT22;8123;50.906;6.172;2023-08-08T03:13:33;12.80;99.90
16038;DHT22;8123;50.906;6.172;2023-08-08T03:15:58;12.80;99.90
16038;DHT22;8123;50.906;6.172;2023-08-08T03:18:24;12.80;99.90
16038;DHT22;8123;50.906;6.172;2023-08-08T03:20:51;12.80;99.90
16038;DHT22;8123;50.906;6.172;2023-08-08T03:23:17;12.90;99.90
16038;DHT22;8123;50.906;6.172;2023-08-08T03:25:43;12.90;99.90
16038;DHT22;8123;50.906;6.172;2023-08-08T03:28:08;12.90;99.90
16038;DHT22;8123;50.906;6.172;2023-08-08T03:30:36;13.10;99.90
16038;DHT22;8123;50.906;6.172;2023-08-08T03:33:03;13.10;99.90
16038;DHT22;8123;50.906;6.172;2023-08-08T03:35:29;13.20;99.90
16038;DHT22;8123;50.906;6.172;2023-08-08T03:37:55;13.20;99.90
16038;DHT22;8123;50.906;6.172;2023-08-08T03:40:20;13.20;99.90
16038;DHT22;8123;50.906;6.172;2023-08-08T03:42:46;13.20;99.90
16038;DHT22;8123;50.906;6.172;2023-08-08T03:45:11;13.20;99.90
16038;DHT22;8123;50.906;6.172;2023-08-08T03:47:37;13.30;99.90
16038;DHT22;8123;50.906;6.172;2023-08-08T03:50:03;13.30;99.90
16038;DHT22;8123;50.906;6.172;2023-08-08T03:52:30;13.30;99.90
16038;DHT22;8123;50.906;6.172;2023-08-08T03:54:56;13.30;99.90
16038;DHT22;8123;50.906;6.172;2023-08-08T03:57:22;13.30;99.90
16038;DHT22;8123;50.906;6.172;2023-08-08T03:59:47;13.30;99.90
16038;DHT22;8123;50.906;6.172;2023-08-08T04:02:13;13.30;99.90
16038;DHT22;8123;50.906;6.172;2023-08-08T04:04:39;13.30;99.90
16038;DHT22;8123;50.906;6.172;2023-08-08T04:07:04;13.00;99.90
16038;DHT22;8123;50.906;6.172;2023-08-08T04:09:30;13.30;99.90
16038;DHT22;8123;50.906;6.172;2023-08-08T04:11:56;13.30;99.90
16038;DHT22;8123;50.906;6.172;2023-08-08T04:14:22;13.30;99.90
16038;DHT22;8123;50.906;6.172;2023-08-08T04:16:47;13.20;99.90
16038;DHT22;8123;50.906;6.172;2023-08-08T04:19:13;13.20;99.90
16038;DHT22;8123;50.906;6.172;2023-08-08T04:21:38;13.20;99.90
16038;DHT22;8123;50.906;6.172;2023-08-08T04:24:04;13.20;99.90
16038;DHT22;8123;50.906;6.172;2023-08-08T04:26:31;13.20;99.90
16038;DHT22;8123;50.906;6.172;2023-08-08T04:28:57;13.20;99.90
16038;DHT22;8123;50.906;6.172;2023-08-08T04:31:23;13.20;99.90
16038;DHT22;8123;50.906;6.172;2023-08-08T04:33:51;13.20;99.90
16038;DHT22;8123;50.906;6.172;2023-08-08T04:36:17;13.20;99.90
16038;DHT22;8123;50.906;6.172;2023-08-08T04:38:43;13.20;99.90
16038;DHT22;8123;50.906;6.172;2023-08-08T04:41:08;13.30;99.90
16038;DHT22;8123;50.906;6.172;2023-08-08T04:43:34;13.30;99.90
16038;DHT22;8123;50.906;6.172;2023-08-08T04:46:00;13.40;99.90
16038;DHT22;8123;50.906;6.172;2023-08-08T04:48:25;13.40;99.90
16038;DHT22;8123;50.906;6.172;2023-08-08T04:50:51;13.40;99.90
16038;DHT22;8123;50.906;6.172;2023-08-08T04:53:16;13.40;99.90
16038;DHT22;8123;50.906;6.172;2023-08-08T04:55:42;13.50;99.90
16038;DHT22;8123;50.906;6.172;2023-08-08T04:58:08;13.50;99.90
16038;DHT22;8123;50.906;6.172;2023-08-08T05:00:33;13.50;99.90
16038;DHT22;8123;50.906;6.172;2023-08-08T05:02:59;13.60;99.90
16038;DHT22;8123;50.906;6.172;2023-08-08T05:05:25;13.60;99.90
16038;DHT22;8123;50.906;6.172;2023-08-08T05:07:50;13.60;99.90
16038;DHT22;8123;50.906;6.172;2023-08-08T05:10:16;13.60;99.90
16038;DHT22;8123;50.906;6.172;2023-08-08T05:12:41;13.70;99.90
16038;DHT22;8123;50.906;6.172;2023-08-08T05:15:07;13.70;99.90
16038;DHT22;8123;50.906;6.172;2023-08-08T05:17:33;13.70;99.90
16038;DHT22;8123;50.906;6.172;2023-08-08T05:19:59;13.70;99.90
16038;DHT22;8123;50.906;6.172;2023-08-08T05:22:25;13.70;99.90
16038;DHT22;8123;50.906;6.172;2023-08-08T05:24:50;13.70;99.90
16038;DHT22;8123;50.906;6.172;2023-08-08T05:27:16;13.80;99.90
16038;DHT22;8123;50.906;6.172;2023-08-08T05:29:42;13.80;99.90
16038;DHT22;8123;50.906;6.172;2023-08-08T05:32:07;13.80;99.90
16038;DHT22;8123;50.906;6.172;2023-08-08T05:34:34;13.80;99.90
16038;DHT22;8123;50.906;6.172;2023-08-08T05:37:00;13.90;99.90
16038;DHT22;8123;50.906;6.172;2023-08-08T05:39:25;13.80;99.90
16038;DHT22;8123;50.906;6.172;2023-08-08T05:41:52;13.80;99.90
16038;DHT22;8123;50.906;6.172;2023-08-08T05:44:17;13.90;99.90
16038;DHT22;8123;50.906;6.172;2023-08-08T05:46:43;14.00;99.90
16038;DHT22;8123;50.906;6.172;2023-08-08T05:49:09;14.00;99.90
16038;DHT22;8123;50.906;6.172;2023-08-08T05:51:34;14.10;99.90
16038;DHT22;8123;50.906;6.172;2023-08-08T05:54:00;14.10;99.90
16038;DHT22;8123;50.906;6.172;2023-08-08T05:56:33;14.20;99.90
16038;DHT22;8123;50.906;6.172;2023-08-08T05:58:59;14.20;99.90
16038;DHT22;8123;50.906;6.172;2023-08-08T06:01:25;14.20;99.90
16038;DHT22;8123;50.906;6.172;2023-08-08T06:03:50;14.30;99.90
16038;DHT22;8123;50.906;6.172;2023-08-08T06:06:16;14.30;99.90
16038;DHT22;8123;50.906;6.172;2023-08-08T06:08:42;14.30;99.90
16038;DHT22;8123;50.906;6.172;2023-08-08T06:11:07;14.30;99.90
16038;DHT22;8123;50.906;6.172;2023-08-08T06:13:33;14.40;99.90
16038;DHT22;8123;50.906;6.172;2023-08-08T06:15:58;14.40;99.90
16038;DHT22;8123;50.906;6.172;2023-08-08T06:18:26;14.50;97.50
16038;DHT22;8123;50.906;6.172;2023-08-08T06:20:52;14.60;88.70
16038;DHT22;8123;50.906;6.172;2023-08-08T06:23:17;14.60;84.90
16038;DHT22;8123;50.906;6.172;2023-08-08T06:25:43;14.60;1.00
16038;DHT22;8123;50.906;6.172;2023-08-08T06:28:09;14.60;1.00
16038;DHT22;8123;50.906;6.172;2023-08-08T06:30:34;14.70;1.00
16038;DHT22;8123;50.906;6.172;2023-08-08T06:33:00;14.70;1.00
16038;DHT22;8123;50.906;6.172;2023-08-08T06:35:25;14.80;1.00
16038;DHT22;8123;50.906;6.172;2023-08-08T06:37:51;14.80;1.00
16038;DHT22;8123;50.906;6.172;2023-08-08T06:40:17;14.80;1.00
16038;DHT22;8123;50.906;6.172;2023-08-08T06:42:42;14.80;1.00
16038;DHT22;8123;50.906;6.172;2023-08-08T06:45:08;14.90;1.00
16038;DHT22;8123;50.906;6.172;2023-08-08T06:47:35;14.90;1.00
16038;DHT22;8123;50.906;6.172;2023-08-08T06:50:00;14.90;1.00
16038;DHT22;8123;50.906;6.172;2023-08-08T06:52:26;14.90;1.00
16038;DHT22;8123;50.906;6.172;2023-08-08T06:54:52;14.90;1.00
16038;DHT22;8123;50.906;6.172;2023-08-08T06:57:17;14.90;1.00
16038;DHT22;8123;50.906;6.172;2023-08-08T06:59:43;14.90;1.00
16038;DHT22;8123;50.906;6.172;2023-08-08T07:02:09;15.00;1.00
16038;DHT22;8123;50.906;6.172;2023-08-08T07:04:35;15.00;1.00
16038;DHT22;8123;50.906;6.172;2023-08-08T07:07:00;15.00;1.00
16038;DHT22;8123;50.906;6.172;2023-08-08T07:09:26;15.00;1.00
16038;DHT22;8123;50.906;6.172;2023-08-08T07:11:51;15.00;1.00
16038;DHT22;8123;50.906;6.172;2023-08-08T07:14:17;15.00;1.00
16038;DHT22;8123;50.906;6.172;2023-08-08T07:16:43;15.10;1.00
16038;DHT22;8123;50.906;6.172;2023-08-08T07:19:08;15.10;1.00
16038;DHT22;8123;50.906;6.172;2023-08-08T07:21:34;15.10;1.00
16038;DHT22;8123;50.906;6.172;2023-08-08T07:24:00;15.10;1.00
16038;DHT22;8123;50.906;6.172;2023-08-08T07:26:25;15.20;1.00
16038;DHT22;8123;50.906;6.172;2023-08-08T07:28:51;15.30;1.00
16038;DHT22;8123;50.906;6.172;2023-08-08T07:31:16;15.30;99.90
16038;DHT22;8123;50.906;6.172;2023-08-08T07:33:42;15.40;99.90
16038;DHT22;8123;50.906;6.172;2023-08-08T07:36:08;15.50;99.90
16038;DHT22;8123;50.906;6.172;2023-08-08T07:38:33;15.50;99.90
16038;DHT22;8123;50.906;6.172;2023-08-08T07:40:59;15.40;99.90
16038;DHT22;8123;50.906;6.172;2023-08-08T07:43:24;15.50;99.90
16038;DHT22;8123;50.906;6.172;2023-08-08T07:45:50;15.50;99.90
16038;DHT22;8123;50.906;6.172;2023-08-08T07:48:16;15.60;41.50
16038;DHT22;8123;50.906;6.172;2023-08-08T07:50:41;15.70;1.00
16038;DHT22;8123;50.906;6.172;2023-08-08T07:53:07;15.80;99.90
16038;DHT22;8123;50.906;6.172;2023-08-08T07:55:33;15.90;99.90
16038;DHT22;8123;50.906;6.172;2023-08-08T07:57:58;16.00;1.00
16038;DHT22;8123;50.906;6.172;2023-08-08T08:00:24;16.00;1.00
16038;DHT22;8123;50.906;6.172;2023-08-08T08:02:49;16.10;99.90
16038;DHT22;8123;50.906;6.172;2023-08-08T08:05:15;16.10;1.00
16038;DHT22;8123;50.906;6.172;2023-08-08T08:07:41;16.10;1.00
16038;DHT22;8123;50.906;6.172;2023-08-08T08:10:10;16.10;18.60
16038;DHT22;8123;50.906;6.172;2023-08-08T08:12:39;16.00;1.00
16038;DHT22;8123;50.906;6.172;2023-08-08T08:15:05;16.10;1.00
16038;DHT22;8123;50.906;6.172;2023-08-08T08:17:31;16.10;99.90
16038;DHT22;8123;50.906;6.172;2023-08-08T08:19:57;16.10;1.00
16038;DHT22;8123;50.906;6.172;2023-08-08T08:22:23;16.30;1.00
16038;DHT22;8123;50.906;6.172;2023-08-08T08:24:49;16.30;1.00
16038;DHT22;8123;50.906;6.172;2023-08-08T08:27:15;16.40;1.00
16038;DHT22;8123;50.906;6.172;2023-08-08T08:29:41;16.40;99.90
16038;DHT22;8123;50.906;6.172;2023-08-08T08:32:07;16.60;1.00
16038;DHT22;8123;50.906;6.172;2023-08-08T08:34:32;16.70;93.30
16038;DHT22;8123;50.906;6.172;2023-08-08T08:36:58;16.70;99.90
16038;DHT22;8123;50.906;6.172;2023-08-08T08:39:24;16.80;1.00
16038;DHT22;8123;50.906;6.172;2023-08-08T08:41:54;16.90;1.00
16038;DHT22;8123;50.906;6.172;2023-08-08T08:44:23;17.00;99.90
16038;DHT22;8123;50.906;6.172;2023-08-08T08:46:51;17.00;1.00
16038;DHT22;8123;50.906;6.172;2023-08-08T08:49:18;17.00;1.00
16038;DHT22;8123;50.906;6.172;2023-08-08T08:51:44;17.10;16.20
16038;DHT22;8123;50.906;6.172;2023-08-08T08:54:11;17.20;6.40
16038;DHT22;8123;50.906;6.172;2023-08-08T08:56:37;17.20;99.90
16038;DHT22;8123;50.906;6.172;2023-08-08T08:59:03;17.10;1.00
16038;DHT22;8123;50.906;6.172;2023-08-08T09:01:29;17.20;99.90
16038;DHT22;8123;50.906;6.172;2023-08-08T09:03:55;17.20;99.90
16038;DHT22;8123;50.906;6.172;2023-08-08T09:06:23;17.20;16.50
16038;DHT22;8123;50.906;6.172;2023-08-08T09:08:49;17.30;1.00
16038;DHT22;8123;50.906;6.172;2023-08-08T09:11:14;17.20;1.00
16038;DHT22;8123;50.906;6.172;2023-08-08T09:13:40;17.30;1.00
16038;DHT22;8123;50.906;6.172;2023-08-08T09:16:06;17.40;1.00
16038;DHT22;8123;50.906;6.172;2023-08-08T09:18:32;17.60;99.90
16038;DHT22;8123;50.906;6.172;2023-08-08T09:20:59;17.60;99.90
16038;DHT22;8123;50.906;6.172;2023-08-08T09:23:24;17.40;99.90
16038;DHT22;8123;50.906;6.172;2023-08-08T09:25:50;17.30;99.90
16038;DHT22;8123;50.906;6.172;2023-08-08T09:28:17;17.30;99.90
16038;DHT22;8123;50.906;6.172;2023-08-08T09:30:44;17.30;99.90
16038;DHT22;8123;50.906;6.172;2023-08-08T09:33:11;17.20;99.90
16038;DHT22;8123;50.906;6.172;2023-08-08T09:35:39;17.20;38.40
16038;DHT22;8123;50.906;6.172;2023-08-08T09:38:05;17.30;99.90
16038;DHT22;8123;50.906;6.172;2023-08-08T09:40:31;17.40;1.00
16038;DHT22;8123;50.906;6.172;2023-08-08T09:42:57;17.50;51.30
16038;DHT22;8123;50.906;6.172;2023-08-08T09:45:24;17.60;99.90
16038;DHT22;8123;50.906;6.172;2023-08-08T09:47:51;17.70;1.00
16038;DHT22;8123;50.906;6.172;2023-08-08T09:50:18;17.70;1.00
16038;DHT22;8123;50.906;6.172;2023-08-08T09:52:46;17.70;1.00
16038;DHT22;8123;50.906;6.172;2023-08-08T09:55:13;17.60;12.70
16038;DHT22;8123;50.906;6.172;2023-08-08T09:57:39;17.60;1.00
16038;DHT22;8123;50.906;6.172;2023-08-08T10:00:06;17.50;1.00
16038;DHT22;8123;50.906;6.172;2023-08-08T10:02:37;17.40;1.00
16038;DHT22;8123;50.906;6.172;2023-08-08T10:05:06;17.50;1.00
16038;DHT22;8123;50.906;6.172;2023-08-08T10:07:32;17.60;1.00
16038;DHT22;8123;50.906;6.172;2023-08-08T10:09:58;17.70;1.00
16038;DHT22;8123;50.906;6.172;2023-08-08T10:12:25;17.80;99.90
16038;DHT22;8123;50.906;6.172;2023-08-08T10:14:52;17.80;99.90
16038;DHT22;8123;50.906;6.172;2023-08-08T10:17:18;17.80;4.70
16038;DHT22;8123;50.906;6.172;2023-08-08T10:19:56;17.90;25.40
16038;DHT22;8123;50.906;6.172;2023-08-08T10:22:24;18.00;53.30
16038;DHT22;8123;50.906;6.172;2023-08-08T10:24:53;18.20;99.90
16038;DHT22;8123;50.906;6.172;2023-08-08T10:27:36;18.20;1.00
16038;DHT22;8123;50.906;6.172;2023-08-08T10:30:06;18.10;51.80
16038;DHT22;8123;50.906;6.172;2023-08-08T10:32:42;18.00;1.00
16038;DHT22;8123;50.906;6.172;2023-08-08T10:35:09;18.10;99.90
16038;DHT22;8123;50.906;6.172;2023-08-08T10:37:36;18.10;99.90
16038;DHT22;8123;50.906;6.172;2023-08-08T10:40:04;18.30;1.00
16038;DHT22;8123;50.906;6.172;2023-08-08T10:42:43;18.20;1.00
16038;DHT22;8123;50.906;6.172;2023-08-08T10:45:13;18.20;1.00
16038;DHT22;8123;50.906;6.172;2023-08-08T10:47:40;18.30;1.00
16038;DHT22;8123;50.906;6.172;2023-08-08T10:50:10;18.40;1.00
16038;DHT22;8123;50.906;6.172;2023-08-08T10:52:59;18.50;1.00
16038;DHT22;8123;50.906;6.172;2023-08-08T10:55:34;18.50;99.90
16038;DHT22;8123;50.906;6.172;2023-08-08T10:58:12;18.40;99.90
16038;DHT22;8123;50.906;6.172;2023-08-08T11:00:41;18.20;1.00
16038;DHT22;8123;50.906;6.172;2023-08-08T11:03:07;18.10;1.00
16038;DHT22;8123;50.906;6.172;2023-08-08T11:05:35;18.10;1.00
16038;DHT22;8123;50.906;6.172;2023-08-08T11:08:02;18.10;1.00
16038;DHT22;8123;50.906;6.172;2023-08-08T11:10:28;18.20;1.00
16038;DHT22;8123;50.906;6.172;2023-08-08T11:12:58;18.20;1.00
16038;DHT22;8123;50.906;6.172;2023-08-08T11:15:25;18.30;1.00
16038;DHT22;8123;50.906;6.172;2023-08-08T11:17:56;18.30;1.00
16038;DHT22;8123;50.906;6.172;2023-08-08T11:20:25;18.40;1.00
16038;DHT22;8123;50.906;6.172;2023-08-08T11:22:55;18.20;1.00
16038;DHT22;8123;50.906;6.172;2023-08-08T11:25:22;18.10;1.00
16038;DHT22;8123;50.906;6.172;2023-08-08T11:27:49;18.00;1.00
16038;DHT22;8123;50.906;6.172;2023-08-08T11:30:15;18.00;1.00
16038;DHT22;8123;50.906;6.172;2023-08-08T11:32:41;17.90;1.00
16038;DHT22;8123;50.906;6.172;2023-08-08T11:35:07;17.90;1.00
16038;DHT22;8123;50.906;6.172;2023-08-08T11:37:33;17.80;1.00
16038;DHT22;8123;50.906;6.172;2023-08-08T11:39:59;17.80;1.00
16038;DHT22;8123;50.906;6.172;2023-08-08T11:42:25;17.80;15.80
16038;DHT22;8123;50.906;6.172;2023-08-08T11:44:52;17.70;99.90
16038;DHT22;8123;50.906;6.172;2023-08-08T11:47:23;17.70;49.10
16038;DHT22;8123;50.906;6.172;2023-08-08T11:49:51;17.80;1.00
16038;DHT22;8123;50.906;6.172;2023-08-08T11:52:18;17.80;8.30
16038;DHT22;8123;50.906;6.172;2023-08-08T11:54:49;17.90;99.90
16038;DHT22;8123;50.906;6.172;2023-08-08T11:57:16;17.90;1.00
16038;DHT22;8123;50.906;6.172;2023-08-08T11:59:41;17.90;1.00
16038;DHT22;8123;50.906;6.172;2023-08-08T12:02:07;17.90;1.00
16038;DHT22;8123;50.906;6.172;2023-08-08T12:04:33;17.90;1.00
16038;DHT22;8123;50.906;6.172;2023-08-08T12:07:02;17.90;1.00
16038;DHT22;8123;50.906;6.172;2023-08-08T12:09:32;17.90;1.00
16038;DHT22;8123;50.906;6.172;2023-08-08T12:12:02;17.80;99.90
16038;DHT22;8123;50.906;6.172;2023-08-08T12:14:29;17.70;99.90
16038;DHT22;8123;50.906;6.172;2023-08-08T12:16:55;17.70;1.00
16038;DHT22;8123;50.906;6.172;2023-08-08T12:19:24;17.70;1.00
16038;DHT22;8123;50.906;6.172;2023-08-08T12:21:51;17.70;1.00
16038;DHT22;8123;50.906;6.172;2023-08-08T12:24:20;17.80;1.00
16038;DHT22;8123;50.906;6.172;2023-08-08T12:26:46;17.80;99.90
16038;DHT22;8123;50.906;6.172;2023-08-08T12:29:13;17.80;99.90
16038;DHT22;8123;50.906;6.172;2023-08-08T12:31:39;17.90;99.90
16038;DHT22;8123;50.906;6.172;2023-08-08T12:34:05;17.90;99.90
16038;DHT22;8123;50.906;6.172;2023-08-08T12:36:30;18.00;99.90
16038;DHT22;8123;50.906;6.172;2023-08-08T12:38:56;18.00;99.90
16038;DHT22;8123;50.906;6.172;2023-08-08T12:41:23;18.00;99.90
16038;DHT22;8123;50.906;6.172;2023-08-08T12:43:50;17.90;99.90
16038;DHT22;8123;50.906;6.172;2023-08-08T12:46:16;17.80;99.90
16038;DHT22;8123;50.906;6.172;2023-08-08T12:48:42;17.70;99.90
16038;DHT22;8123;50.906;6.172;2023-08-08T12:51:09;17.70;1.00
16038;DHT22;8123;50.906;6.172;2023-08-08T12:53:35;17.60;1.00
16038;DHT22;8123;50.906;6.172;2023-08-08T12:56:00;17.60;1.00
16038;DHT22;8123;50.906;6.172;2023-08-08T12:58:26;17.60;1.00
16038;DHT22;8123;50.906;6.172;2023-08-08T13:00:52;17.50;1.00
16038;DHT22;8123;50.906;6.172;2023-08-08T13:03:17;17.50;1.00
16038;DHT22;8123;50.906;6.172;2023-08-08T13:05:43;17.40;1.00
16038;DHT22;8123;50.906;6.172;2023-08-08T13:08:09;17.40;82.20
16038;DHT22;8123;50.906;6.172;2023-08-08T13:10:35;17.40;36.00
16038;DHT22;8123;50.906;6.172;2023-08-08T13:13:01;17.40;1.00
16038;DHT22;8123;50.906;6.172;2023-08-08T13:15:27;17.40;1.00
16038;DHT22;8123;50.906;6.172;2023-08-08T13:17:52;17.40;1.00
16038;DHT22;8123;50.906;6.172;2023-08-08T13:20:18;17.40;59.70
16038;DHT22;8123;50.906;6.172;2023-08-08T13:22:44;17.40;1.00
16038;DHT22;8123;50.906;6.172;2023-08-08T13:25:10;17.50;1.00
16038;DHT22;8123;50.906;6.172;2023-08-08T13:27:36;17.70;1.00
16038;DHT22;8123;50.906;6.172;2023-08-08T13:30:02;17.70;1.00
16038;DHT22;8123;50.906;6.172;2023-08-08T13:32:28;17.80;1.00
16038;DHT22;8123;50.906;6.172;2023-08-08T13:34:53;17.80;1.00
16038;DHT22;8123;50.906;6.172;2023-08-08T13:37:20;17.80;1.00
16038;DHT22;8123;50.906;6.172;2023-08-08T13:39:46;17.90;1.00
16038;DHT22;8123;50.906;6.172;2023-08-08T13:42:11;17.90;1.00
16038;DHT22;8123;50.906;6.172;2023-08-08T13:44:37;18.10;1.00
16038;DHT22;8123;50.906;6.172;2023-08-08T13:47:03;18.20;1.00
16038;DHT22;8123;50.906;6.172;2023-08-08T13:49:28;18.20;1.00
16038;DHT22;8123;50.906;6.172;2023-08-08T13:51:54;18.20;1.00
16038;DHT22;8123;50.906;6.172;2023-08-08T13:54:20;18.50;1.00
16038;DHT22;8123;50.906;6.172;2023-08-08T13:56:46;18.50;99.90
16038;DHT22;8123;50.906;6.172;2023-08-08T13:59:12;18.60;99.90
16038;DHT22;8123;50.906;6.172;2023-08-08T14:01:38;18.70;1.00
16038;DHT22;8123;50.906;6.172;2023-08-08T14:04:03;18.70;99.90
16038;DHT22;8123;50.906;6.172;2023-08-08T14:06:29;18.70;99.90
16038;DHT22;8123;50.906;6.172;2023-08-08T14:08:56;18.80;99.90
16038;DHT22;8123;50.906;6.172;2023-08-08T14:11:22;18.70;99.90
16038;DHT22;8123;50.906;6.172;2023-08-08T14:13:47;18.80;99.90
16038;DHT22;8123;50.906;6.172;2023-08-08T14:16:13;18.80;99.90
16038;DHT22;8123;50.906;6.172;2023-08-08T14:18:39;18.80;99.90
16038;DHT22;8123;50.906;6.172;2023-08-08T14:21:05;18.80;99.90
16038;DHT22;8123;50.906;6.172;2023-08-08T14:23:31;18.80;99.90
16038;DHT22;8123;50.906;6.172;2023-08-08T14:25:56;18.70;99.90
16038;DHT22;8123;50.906;6.172;2023-08-08T14:28:22;18.70;99.90
16038;DHT22;8123;50.906;6.172;2023-08-08T14:30:48;18.90;99.90
16038;DHT22;8123;50.906;6.172;2023-08-08T14:33:15;18.90;99.90
16038;DHT22;8123;50.906;6.172;2023-08-08T14:35:42;18.90;99.90
16038;DHT22;8123;50.906;6.172;2023-08-08T14:38:07;19.10;99.90
16038;DHT22;8123;50.906;6.172;2023-08-08T14:40:33;19.20;99.90
16038;DHT22;8123;50.906;6.172;2023-08-08T14:43:00;19.40;99.60
16038;DHT22;8123;50.906;6.172;2023-08-08T14:45:26;19.50;28.70
16038;DHT22;8123;50.906;6.172;2023-08-08T14:47:52;19.40;5.80
16038;DHT22;8123;50.906;6.172;2023-08-08T14:50:19;19.40;1.00
16038;DHT22;8123;50.906;6.172;2023-08-08T14:52:45;19.20;1.00
16038;DHT22;8123;50.906;6.172;2023-08-08T14:55:11;19.00;1.00
16038;DHT22;8123;50.906;6.172;2023-08-08T14:57:36;18.90;1.00
16038;DHT22;8123;50.906;6.172;2023-08-08T15:00:03;19.10;1.00
16038;DHT22;8123;50.906;6.172;2023-08-08T15:02:29;19.10;1.00
16038;DHT22;8123;50.906;6.172;2023-08-08T15:04:55;19.10;1.00
16038;DHT22;8123;50.906;6.172;2023-08-08T15:07:20;19.10;1.00
16038;DHT22;8123;50.906;6.172;2023-08-08T15:09:47;19.20;1.50
16038;DHT22;8123;50.906;6.172;2023-08-08T15:12:17;19.20;71.90
16038;DHT22;8123;50.906;6.172;2023-08-08T15:14:43;19.20;1.00
16038;DHT22;8123;50.906;6.172;2023-08-08T15:17:09;19.20;1.00
16038;DHT22;8123;50.906;6.172;2023-08-08T15:19:34;19.20;1.00
16038;DHT22;8123;50.906;6.172;2023-08-08T15:22:00;19.20;1.00
16038;DHT22;8123;50.906;6.172;2023-08-08T15:24:26;19.30;43.50
16038;DHT22;8123;50.906;6.172;2023-08-08T15:26:51;19.40;1.00
16038;DHT22;8123;50.906;6.172;2023-08-08T15:29:17;19.40;1.00
16038;DHT22;8123;50.906;6.172;2023-08-08T15:31:43;19.50;1.00
16038;DHT22;8123;50.906;6.172;2023-08-08T15:34:08;19.40;1.00
16038;DHT22;8123;50.906;6.172;2023-08-08T15:36:34;19.30;1.00
16038;DHT22;8123;50.906;6.172;2023-08-08T15:39:00;19.20;1.00
16038;DHT22;8123;50.906;6.172;2023-08-08T15:41:25;19.20;1.00
16038;DHT22;8123;50.906;6.172;2023-08-08T15:43:51;19.10;1.00
16038;DHT22;8123;50.906;6.172;2023-08-08T15:46:17;19.10;1.00
16038;DHT22;8123;50.906;6.172;2023-08-08T15:48:43;19.00;1.00